Time;durP1;ratioP1;P1;durP2;ratioP2;P2;SDS_P1;SDS_P2;PMS_P1;PMS_P2;Temp;Humidity;BMP_temperature;BMP_pressure;BME280_temperature;BME280_humidity;BME280_pressure;Samples;Min_cycle;Max_cycle;Signal;HPM_P1;HPM_P2
2023/02/17 00:01:43;;;;;;;38.17;19.33;;;;;;;;;;5050261;28;20029;-78
2023/02/17 00:04:08;;;;;;;37.23;18.93;;;;;;;;;;5051443;28;20060;-78
2023/02/17 00:06:34;;;;;;;39.77;19.53;;;;;;;;;;5051427;28;20032;-79
2023/02/17 00:09:00;;;;;;;38.40;19.23;;;;;;;;;;5049780;28;20031;-78
2023/02/17 00:11:27;;;;;;;42.70;20.73;;;;;;;;;;5049065;28;20436;-79
2023/02/17 00:13:52;;;;;;;38.37;20.33;;;;;;;;;;5049781;28;20029;-79
2023/02/17 00:16:21;;;;;;;38.00;19.60;;;;;;;;;;5050965;28;20078;-78
2023/02/17 00:18:51;;;;;;;38.83;19.20;;;;;;;;;;5050164;28;20029;-78
2023/02/17 00:21:19;;;;;;;39.97;17.77;;;;;;;;;;5050088;28;20028;-79
2023/02/17 00:23:46;;;;;;;43.10;18.83;;;;;;;;;;5050228;28;20108;-79
2023/02/17 00:26:13;;;;;;;39.17;20.13;;;;;;;;;;5051212;28;20056;-79
2023/02/17 00:28:38;;;;;;;39.23;18.67;;;;;;;;;;5051271;28;20130;-78
2023/02/17 00:31:09;;;;;;;36.80;19.20;;;;;;;;;;5049563;28;20498;-79
2023/02/17 00:33:35;;;;;;;40.87;18.97;;;;;;;;;;5051040;28;20056;-78
2023/02/17 00:36:04;;;;;;;41.33;19.47;;;;;;;;;;5049375;28;20128;-78
2023/02/17 00:38:29;;;;;;;32.93;17.20;;;;;;;;;;5050307;28;20052;-78
2023/02/17 00:40:54;;;;;;;39.17;19.07;;;;;;;;;;5050667;28;20029;-79
2023/02/17 00:43:20;;;;;;;32.97;18.30;;;;;;;;;;5049764;28;20021;-79
2023/02/17 00:45:45;;;;;;;43.80;20.23;;;;;;;;;;5049744;28;20041;-79
2023/02/17 00:48:11;;;;;;;37.33;18.53;;;;;;;;;;5049796;28;20119;-77
2023/02/17 00:50:36;;;;;;;44.90;19.97;;;;;;;;;;5049720;28;20028;-79
2023/02/17 00:53:02;;;;;;;43.17;19.93;;;;;;;;;;5051604;28;20043;-78
2023/02/17 00:55:27;;;;;;;39.17;19.10;;;;;;;;;;5049263;28;20029;-78
2023/02/17 00:57:53;;;;;;;38.30;18.33;;;;;;;;;;5048981;28;20024;-79
2023/02/17 01:00:19;;;;;;;53.20;21.27;;;;;;;;;;5051495;28;20021;-79
2023/02/17 01:02:44;;;;;;;46.53;20.80;;;;;;;;;;5053456;28;20500;-78
2023/02/17 01:05:10;;;;;;;42.83;19.83;;;;;;;;;;5054519;28;20025;-78
2023/02/17 01:07:36;;;;;;;40.87;19.83;;;;;;;;;;5053522;28;20021;-78
2023/02/17 01:10:03;;;;;;;46.47;20.87;;;;;;;;;;5070214;28;20029;-78
2023/02/17 01:12:29;;;;;;;45.40;21.57;;;;;;;;;;5036977;28;20033;-78
2023/02/17 01:14:55;;;;;;;42.23;19.87;;;;;;;;;;5055709;28;20035;-78
2023/02/17 01:17:20;;;;;;;45.57;20.77;;;;;;;;;;5053362;28;20021;-79
2023/02/17 01:19:46;;;;;;;43.10;19.93;;;;;;;;;;5054354;28;20017;-77
2023/02/17 01:22:11;;;;;;;39.33;19.10;;;;;;;;;;5052707;28;20081;-79
2023/02/17 01:24:38;;;;;;;43.20;20.20;;;;;;;;;;5052538;28;20031;-78
2023/02/17 01:27:04;;;;;;;40.37;20.00;;;;;;;;;;5052636;28;20059;-78
2023/02/17 01:29:29;;;;;;;36.53;18.27;;;;;;;;;;5051882;28;20417;-80
2023/02/17 01:31:55;;;;;;;50.00;19.80;;;;;;;;;;5052352;28;20123;-77
2023/02/17 01:34:20;;;;;;;38.63;19.07;;;;;;;;;;5053628;28;20366;-79
2023/02/17 01:36:46;;;;;;;44.13;19.97;;;;;;;;;;5054080;28;20392;-78
2023/02/17 01:39:14;;;;;;;45.13;20.17;;;;;;;;;;5051504;28;20025;-79
2023/02/17 01:41:41;;;;;;;39.30;19.37;;;;;;;;;;5051414;28;20024;-78
2023/02/17 01:44:21;;;;;;;41.47;20.23;;;;;;;;;;5053665;28;20571;-78
2023/02/17 01:46:54;;;;;;;41.67;19.43;;;;;;;;;;5053842;28;20017;-78
2023/02/17 01:49:36;;;;;;;43.23;18.93;;;;;;;;;;5053563;28;20376;-78
2023/02/17 01:52:23;;;;;;;40.10;18.30;;;;;;;;;;5051493;28;20037;-78
2023/02/17 01:54:58;;;;;;;43.83;20.20;;;;;;;;;;5053441;28;20032;-78
2023/02/17 01:57:26;;;;;;;43.57;21.13;;;;;;;;;;5051336;28;20384;-78
2023/02/17 01:59:52;;;;;;;41.60;17.53;;;;;;;;;;5051257;28;20025;-78
2023/02/17 02:02:19;;;;;;;45.00;18.40;;;;;;;;;;5052642;28;20025;-79
2023/02/17 02:04:48;;;;;;;40.30;19.00;;;;;;;;;;5053247;28;20131;-79
2023/02/17 02:07:19;;;;;;;37.33;18.63;;;;;;;;;;5051447;28;20036;-79
2023/02/17 02:09:53;;;;;;;39.55;18.63;;;;;;;;;;5052505;28;20104;-79
2023/02/17 02:12:23;;;;;;;38.80;18.90;;;;;;;;;;5050844;28;20199;-79
2023/02/17 02:14:49;;;;;;;46.43;19.20;;;;;;;;;;5052839;28;20109;-79
2023/02/17 02:17:39;;;;;;;37.63;18.30;;;;;;;;;;5051368;28;20029;-79
2023/02/17 02:20:26;;;;;;;38.07;18.10;;;;;;;;;;5051676;28;20024;-79
2023/02/17 02:23:04;;;;;;;41.13;19.60;;;;;;;;;;5051326;28;20419;-79
2023/02/17 02:25:55;;;;;;;41.07;19.13;;;;;;;;;;5050084;28;20052;-79
2023/02/17 02:28:55;;;;;;;37.10;18.10;;;;;;;;;;5052713;28;20025;-79
2023/02/17 02:32:07;;;;;;;38.67;17.97;;;;;;;;;;5051235;28;20037;-79
2023/02/17 02:34:42;;;;;;;39.28;16.52;;;;;;;;;;5023987;28;20124;-78
2023/02/17 02:37:15;;;;;;;38.33;18.17;;;;;;;;;;5051997;28;20083;-78
2023/02/17 02:39:47;;;;;;;37.87;18.33;;;;;;;;;;5037698;28;20021;-79
2023/02/17 02:42:20;;;;;;;39.47;17.30;;;;;;;;;;5032123;28;20025;-78
2023/02/17 02:44:46;;;;;;;41.93;19.97;;;;;;;;;;5033278;28;20032;-79
2023/02/17 02:47:43;;;;;;;37.07;17.70;;;;;;;;;;5032981;28;20507;-79
2023/02/17 02:50:12;;;;;;;34.83;16.57;;;;;;;;;;5031418;28;20079;-78
2023/02/17 02:52:47;;;;;;;34.10;17.47;;;;;;;;;;5031057;28;20032;-78
2023/02/17 02:55:52;;;;;;;36.00;19.07;;;;;;;;;;5031267;28;20446;-79
2023/02/17 02:58:47;;;;;;;38.13;17.57;;;;;;;;;;5014725;28;20037;-78
2023/02/17 03:01:24;;;;;;;36.20;17.53;;;;;;;;;;5031009;28;20546;-78
2023/02/17 03:04:17;;;;;;;34.67;17.10;;;;;;;;;;5031880;28;20104;-77
2023/02/17 03:06:55;;;;;;;35.13;17.37;;;;;;;;;;5032282;28;20034;-78
2023/02/17 03:09:24;;;;;;;33.40;17.50;;;;;;;;;;5030227;28;20021;-78
2023/02/17 03:11:50;;;;;;;35.30;19.17;;;;;;;;;;5031181;28;20594;-77
2023/02/17 03:14:19;;;;;;;32.53;16.30;;;;;;;;;;5030483;28;20186;-78
2023/02/17 03:16:45;;;;;;;37.20;18.00;;;;;;;;;;5030321;28;20048;-79
2023/02/17 03:19:12;;;;;;;36.70;18.00;;;;;;;;;;5030077;28;20033;-79
2023/02/17 03:21:42;;;;;;;36.43;17.87;;;;;;;;;;5031224;28;20029;-78
2023/02/17 03:24:09;;;;;;;39.37;17.47;;;;;;;;;;5030786;28;20033;-77
2023/02/17 03:26:35;;;;;;;35.63;18.20;;;;;;;;;;5046380;28;20137;-78
2023/02/17 03:29:00;;;;;;;37.80;18.57;;;;;;;;;;5030330;28;20032;-78
2023/02/17 03:31:26;;;;;;;35.30;18.17;;;;;;;;;;5029833;28;20104;-77
2023/02/17 03:33:53;;;;;;;43.60;22.00;;;;;;;;;;5029670;28;20106;-78
2023/02/17 03:36:19;;;;;;;44.27;21.03;;;;;;;;;;5030068;28;20057;-79
2023/02/17 03:38:44;;;;;;;40.50;18.90;;;;;;;;;;5031593;28;20423;-78
2023/02/17 03:41:10;;;;;;;38.27;19.70;;;;;;;;;;5030503;28;20464;-78
2023/02/17 03:43:37;;;;;;;38.33;18.77;;;;;;;;;;5030318;28;20072;-78
2023/02/17 03:46:02;;;;;;;36.87;19.10;;;;;;;;;;5031528;28;20076;-78
2023/02/17 03:48:28;;;;;;;87.97;21.37;;;;;;;;;;5029723;28;20030;-77
2023/02/17 03:50:54;;;;;;;56.67;19.37;;;;;;;;;;5030703;28;20025;-77
2023/02/17 03:53:19;;;;;;;32.67;15.73;;;;;;;;;;5028860;28;20040;-77
2023/02/17 03:55:45;;;;;;;33.70;15.87;;;;;;;;;;5030405;28;20029;-77
2023/02/17 03:58:11;;;;;;;32.27;15.53;;;;;;;;;;5030584;28;20029;-78
2023/02/17 04:00:36;;;;;;;36.60;17.27;;;;;;;;;;5031694;28;20021;-79
2023/02/17 04:03:02;;;;;;;36.47;17.07;;;;;;;;;;5046187;28;20654;-79
2023/02/17 04:05:27;;;;;;;34.10;16.20;;;;;;;;;;5031465;28;20052;-79
2023/02/17 04:07:53;;;;;;;36.67;15.97;;;;;;;;;;5031390;28;20040;-78
2023/02/17 04:10:18;;;;;;;32.10;15.40;;;;;;;;;;5030524;28;20021;-78
2023/02/17 04:12:44;;;;;;;36.40;17.20;;;;;;;;;;5030968;28;20026;-79
2023/02/17 04:15:09;;;;;;;28.63;15.73;;;;;;;;;;5029802;28;20131;-79
2023/02/17 04:17:36;;;;;;;33.87;17.00;;;;;;;;;;5030570;28;20033;-77
2023/02/17 04:20:03;;;;;;;34.27;16.40;;;;;;;;;;5029846;28;20029;-78
2023/02/17 04:22:29;;;;;;;30.03;15.23;;;;;;;;;;5031466;28;20446;-79
2023/02/17 04:24:54;;;;;;;32.47;16.80;;;;;;;;;;5029490;28;20120;-77
2023/02/17 04:27:20;;;;;;;31.80;15.20;;;;;;;;;;5031416;28;20128;-77
2023/02/17 04:29:45;;;;;;;31.53;14.97;;;;;;;;;;5030889;28;20125;-78
2023/02/17 04:32:11;;;;;;;28.27;14.40;;;;;;;;;;5029083;28;20034;-78
2023/02/17 04:34:37;;;;;;;31.27;15.67;;;;;;;;;;5045635;28;20033;-78
2023/02/17 04:37:02;;;;;;;25.73;13.60;;;;;;;;;;5033008;28;20033;-79
2023/02/17 04:39:28;;;;;;;23.40;13.00;;;;;;;;;;5032985;28;20068;-78
2023/02/17 04:41:53;;;;;;;30.03;13.43;;;;;;;;;;5033236;28;20029;-78
2023/02/17 04:44:19;;;;;;;22.23;12.67;;;;;;;;;;5034788;28;20033;-78
2023/02/17 04:46:44;;;;;;;27.83;12.23;;;;;;;;;;5032811;28;20025;-79
2023/02/17 04:49:10;;;;;;;24.13;11.73;;;;;;;;;;5034747;28;20028;-77
2023/02/17 04:51:35;;;;;;;27.57;10.93;;;;;;;;;;5032809;28;20026;-77
2023/02/17 04:54:01;;;;;;;23.47;10.53;;;;;;;;;;5034141;28;20044;-79
2023/02/17 04:56:26;;;;;;;23.60;11.13;;;;;;;;;;5034096;28;20026;-78
2023/02/17 04:58:51;;;;;;;24.20;12.57;;;;;;;;;;5032871;28;20448;-77
2023/02/17 05:01:17;;;;;;;18.73;10.70;;;;;;;;;;5034328;28;20078;-77
2023/02/17 05:03:42;;;;;;;22.33;10.17;;;;;;;;;;5033797;28;20021;-78
2023/02/17 05:06:08;;;;;;;21.50;9.47;;;;;;;;;;5034009;28;20444;-79
2023/02/17 05:08:33;;;;;;;19.27;10.17;;;;;;;;;;5032387;28;20171;-79
2023/02/17 05:10:59;;;;;;;20.83;10.77;;;;;;;;;;5032288;28;20036;-79
2023/02/17 05:13:26;;;;;;;20.10;9.47;;;;;;;;;;5032487;28;20057;-79
2023/02/17 05:15:51;;;;;;;17.57;9.40;;;;;;;;;;5033949;28;20138;-80
2023/02/17 05:18:17;;;;;;;27.40;11.60;;;;;;;;;;5032547;28;20033;-79
2023/02/17 05:20:42;;;;;;;18.43;9.57;;;;;;;;;;5035009;28;20024;-79
2023/02/17 05:23:08;;;;;;;19.60;9.60;;;;;;;;;;5049613;28;20063;-79
2023/02/17 05:25:35;;;;;;;17.20;8.97;;;;;;;;;;5034648;28;20029;-79
2023/02/17 05:28:00;;;;;;;20.77;9.80;;;;;;;;;;5033180;28;20042;-79
2023/02/17 05:30:26;;;;;;;18.77;9.43;;;;;;;;;;5032683;28;20101;-79
2023/02/17 05:32:52;;;;;;;18.10;9.30;;;;;;;;;;5033516;28;20117;-80
2023/02/17 05:35:17;;;;;;;17.73;9.67;;;;;;;;;;5034637;28;20127;-80
2023/02/17 05:37:43;;;;;;;28.67;9.47;;;;;;;;;;5034373;28;20101;-77
2023/02/17 05:40:09;;;;;;;18.87;9.47;;;;;;;;;;5052238;28;20032;-82
2023/02/17 05:42:34;;;;;;;14.80;9.03;;;;;;;;;;5040320;28;20300;-84
2023/02/17 05:45:00;;;;;;;16.63;8.37;;;;;;;;;;5036562;28;20115;-80
2023/02/17 05:47:26;;;;;;;20.97;9.03;;;;;;;;;;5054191;28;20025;-83
2023/02/17 05:49:51;;;;;;;17.27;8.20;;;;;;;;;;5058798;28;20025;-81
2023/02/17 05:52:17;;;;;;;15.77;9.30;;;;;;;;;;5054021;28;20028;-83
2023/02/17 05:54:43;;;;;;;16.90;8.43;;;;;;;;;;5051891;28;20434;-82
2023/02/17 05:57:08;;;;;;;17.63;8.57;;;;;;;;;;5053107;28;21465;-83
2023/02/17 05:59:34;;;;;;;14.48;8.10;;;;;;;;;;5046551;28;20032;-83
2023/02/17 06:02:00;;;;;;;16.97;8.00;;;;;;;;;;5053038;28;20013;-82
2023/02/17 06:04:25;;;;;;;16.07;8.43;;;;;;;;;;5045996;28;20124;-81
2023/02/17 06:06:51;;;;;;;17.80;7.47;;;;;;;;;;5050667;28;20037;-81
2023/02/17 06:09:17;;;;;;;14.63;8.63;;;;;;;;;;5043839;28;20028;-82
2023/02/17 06:11:43;;;;;;;14.93;8.23;;;;;;;;;;5069550;28;20032;-80
2023/02/17 06:14:09;;;;;;;18.85;8.57;;;;;;;;;;5045727;28;20029;-78
2023/02/17 06:16:36;;;;;;;15.33;9.30;;;;;;;;;;5054370;28;20069;-80
2023/02/17 06:19:03;;;;;;;16.27;8.82;;;;;;;;;;5052783;28;20021;-80
2023/02/17 06:21:29;;;;;;;16.85;9.82;;;;;;;;;;5062239;28;20542;-79
2023/02/17 06:23:55;;;;;;;17.17;8.43;;;;;;;;;;5038237;28;20034;-82
2023/02/17 06:26:20;;;;;;;17.45;9.02;;;;;;;;;;5051943;28;20025;-78
2023/02/17 06:28:46;;;;;;;21.27;10.75;;;;;;;;;;5051573;28;20457;-77
2023/02/17 06:31:12;;;;;;;15.77;9.07;;;;;;;;;;5052162;28;20021;-78
2023/02/17 06:33:38;;;;;;;22.90;9.93;;;;;;;;;;5045870;28;20062;-78
2023/02/17 06:36:04;;;;;;;19.92;8.80;;;;;;;;;;5043630;28;20102;-80
2023/02/17 06:38:29;;;;;;;17.40;8.90;;;;;;;;;;5049190;28;20028;-85
2023/02/17 06:40:55;;;;;;;13.15;8.52;;;;;;;;;;5059254;28;20025;-80
2023/02/17 06:43:20;;;;;;;13.13;8.40;;;;;;;;;;5052607;28;20040;-83
2023/02/17 06:45:46;;;;;;;16.77;7.85;;;;;;;;;;5052758;28;20462;-80
2023/02/17 06:48:11;;;;;;;15.32;7.85;;;;;;;;;;5069237;28;20025;-81
2023/02/17 06:50:38;;;;;;;16.55;7.55;;;;;;;;;;5042135;28;20033;-81
2023/02/17 06:53:03;;;;;;;12.95;7.50;;;;;;;;;;5037166;28;20090;-82
2023/02/17 06:55:29;;;;;;;14.52;7.70;;;;;;;;;;5050000;28;20032;-80
2023/02/17 06:57:55;;;;;;;15.77;7.97;;;;;;;;;;5067016;28;20033;-80
2023/02/17 07:00:22;;;;;;;16.67;8.00;;;;;;;;;;5052141;28;20020;-81
2023/02/17 07:02:48;;;;;;;14.40;7.80;;;;;;;;;;5064330;28;20033;-82
2023/02/17 07:05:14;;;;;;;19.45;8.52;;;;;;;;;;5050698;28;20028;-82
2023/02/17 07:07:39;;;;;;;24.70;9.23;;;;;;;;;;5042779;28;20048;-82
2023/02/17 07:10:05;;;;;;;15.00;7.35;;;;;;;;;;5039561;28;20034;-81
2023/02/17 07:12:31;;;;;;;14.82;6.90;;;;;;;;;;5063549;28;20037;-79
2023/02/17 07:14:58;;;;;;;11.93;7.47;;;;;;;;;;5044843;28;20095;-81
2023/02/17 07:17:23;;;;;;;17.23;7.63;;;;;;;;;;5063569;28;20056;-81
2023/02/17 07:19:49;;;;;;;13.18;6.93;;;;;;;;;;5038616;28;20361;-81
2023/02/17 07:22:14;;;;;;;14.80;7.22;;;;;;;;;;5034228;28;20025;-84
2023/02/17 07:24:40;;;;;;;15.85;7.68;;;;;;;;;;5042582;28;20028;-77
2023/02/17 07:27:07;;;;;;;13.35;7.95;;;;;;;;;;5045103;28;20029;-79
2023/02/17 07:29:33;;;;;;;10.98;6.65;;;;;;;;;;5044284;28;20516;-80
2023/02/17 07:31:58;;;;;;;13.02;6.95;;;;;;;;;;5050703;28;20147;-81
2023/02/17 07:34:24;;;;;;;19.98;7.30;;;;;;;;;;5028165;28;20029;-81
2023/02/17 07:36:49;;;;;;;11.85;5.88;;;;;;;;;;5044104;28;20024;-80
2023/02/17 07:39:15;;;;;;;10.77;5.93;;;;;;;;;;5048139;28;20036;-80
2023/02/17 07:41:41;;;;;;;11.05;6.20;;;;;;;;;;5042329;28;20036;-78
2023/02/17 07:44:06;;;;;;;9.13;5.65;;;;;;;;;;5064090;28;20029;-78
2023/02/17 07:46:32;;;;;;;9.73;5.63;;;;;;;;;;5040457;28;20553;-78
2023/02/17 07:48:58;;;;;;;8.95;5.68;;;;;;;;;;5044716;28;20063;-81
2023/02/17 07:51:24;;;;;;;9.40;6.03;;;;;;;;;;5031881;28;20127;-76
2023/02/17 07:53:52;;;;;;;9.35;5.47;;;;;;;;;;5063308;28;20025;-78
2023/02/17 07:56:20;;;;;;;12.65;6.35;;;;;;;;;;5036962;28;20366;-78
2023/02/17 07:58:47;;;;;;;11.05;5.63;;;;;;;;;;5043636;28;20085;-81
2023/02/17 08:01:18;;;;;;;14.23;6.43;;;;;;;;;;5064996;28;20124;-80
2023/02/17 08:03:44;;;;;;;11.88;6.32;;;;;;;;;;5058365;28;20507;-79
2023/02/17 08:06:13;;;;;;;12.07;5.93;;;;;;;;;;5042660;28;20602;-77
2023/02/17 08:14:07;;;;;;;11.18;6.75;;;;;;;;;;5043854;28;20111;-78
2023/02/17 08:16:33;;;;;;;9.23;6.18;;;;;;;;;;5046249;28;20492;-79
2023/02/17 08:18:59;;;;;;;12.52;6.32;;;;;;;;;;5045712;28;20025;-78
2023/02/17 08:21:26;;;;;;;15.75;6.93;;;;;;;;;;5055050;28;20044;-78
2023/02/17 08:23:52;;;;;;;14.50;7.18;;;;;;;;;;5045626;28;20056;-78
2023/02/17 08:26:20;;;;;;;16.48;7.40;;;;;;;;;;5036295;28;20113;-79
2023/02/17 08:28:47;;;;;;;10.18;6.45;;;;;;;;;;5044698;28;20029;-78
2023/02/17 08:31:22;;;;;;;18.35;7.95;;;;;;;;;;5049299;28;20029;-79
2023/02/17 08:33:48;;;;;;;10.70;6.18;;;;;;;;;;5046410;28;20411;-79
2023/02/17 08:36:13;;;;;;;12.15;6.47;;;;;;;;;;5046405;28;20104;-79
2023/02/17 08:38:40;;;;;;;13.18;6.20;;;;;;;;;;5047500;28;20026;-80
2023/02/17 08:41:20;;;;;;;15.70;6.65;;;;;;;;;;5051569;28;20029;-81
2023/02/17 08:43:47;;;;;;;17.60;6.88;;;;;;;;;;5043811;28;20029;-80
2023/02/17 08:46:13;;;;;;;11.75;6.18;;;;;;;;;;5048703;28;20033;-79
2023/02/17 08:48:39;;;;;;;14.02;6.65;;;;;;;;;;5052483;28;20104;-79
2023/02/17 08:51:05;;;;;;;9.05;5.88;;;;;;;;;;5047826;28;20031;-78
2023/02/17 08:53:31;;;;;;;8.80;5.70;;;;;;;;;;5048052;28;20037;-80
2023/02/17 08:55:56;;;;;;;12.85;6.68;;;;;;;;;;5044089;28;20120;-77
2023/02/17 08:58:22;;;;;;;15.55;6.90;;;;;;;;;;5049157;28;20047;-78
2023/02/17 09:00:47;;;;;;;10.68;5.80;;;;;;;;;;5049573;28;20022;-81
2023/02/17 09:03:13;;;;;;;14.15;6.82;;;;;;;;;;5041405;28;20329;-80
2023/02/17 09:05:39;;;;;;;12.35;7.10;;;;;;;;;;5053768;28;20037;-78
2023/02/17 09:08:05;;;;;;;10.90;5.90;;;;;;;;;;5043742;28;20033;-80
2023/02/17 09:10:30;;;;;;;13.77;6.85;;;;;;;;;;5042427;28;20029;-81
2023/02/17 09:12:57;;;;;;;16.77;6.70;;;;;;;;;;5040878;28;20036;-80
2023/02/17 09:15:23;;;;;;;13.00;5.88;;;;;;;;;;5051671;28;20416;-80
2023/02/17 09:17:49;;;;;;;7.95;5.15;;;;;;;;;;5048838;28;20044;-80
2023/02/17 09:20:14;;;;;;;14.27;7.88;;;;;;;;;;5049975;28;20024;-80
2023/02/17 09:22:41;;;;;;;10.68;6.55;;;;;;;;;;5046697;28;20370;-82
2023/02/17 09:25:07;;;;;;;10.63;5.43;;;;;;;;;;5047184;28;20029;-81
2023/02/17 09:27:32;;;;;;;9.48;5.82;;;;;;;;;;5043186;28;20110;-80
2023/02/17 09:29:58;;;;;;;11.20;5.68;;;;;;;;;;5045911;28;20037;-79
2023/02/17 09:32:23;;;;;;;13.73;5.22;;;;;;;;;;5063225;28;20060;-79
2023/02/17 09:34:54;;;;;;;11.48;5.95;;;;;;;;;;5048863;28;20065;-79
2023/02/17 09:37:20;;;;;;;10.05;5.50;;;;;;;;;;5048357;28;20079;-79
2023/02/17 09:39:47;;;;;;;10.15;5.82;;;;;;;;;;5050863;28;20021;-79
2023/02/17 09:42:27;;;;;;;8.63;5.47;;;;;;;;;;5046029;28;20033;-80
2023/02/17 09:45:16;;;;;;;10.27;5.68;;;;;;;;;;5046245;28;20047;-78
2023/02/17 09:47:50;;;;;;;13.38;5.75;;;;;;;;;;5066303;28;20040;-79
2023/02/17 09:50:26;;;;;;;11.25;6.13;;;;;;;;;;5049909;28;20033;-78
2023/02/17 09:53:29;;;;;;;10.27;5.00;;;;;;;;;;5044058;28;20098;-79
2023/02/17 09:55:58;;;;;;;7.45;4.65;;;;;;;;;;5033389;28;20124;-78
2023/02/17 09:58:35;;;;;;;10.15;4.93;;;;;;;;;;5038244;28;20187;-80
2023/02/17 10:01:04;;;;;;;10.55;4.85;;;;;;;;;;5051334;28;20746;-79
2023/02/17 10:03:44;;;;;;;12.77;5.40;;;;;;;;;;5043817;28;20025;-79
2023/02/17 10:06:23;;;;;;;8.98;5.10;;;;;;;;;;5049790;28;20037;-79
2023/02/17 10:09:00;;;;;;;12.73;5.45;;;;;;;;;;5068871;28;20024;-80
2023/02/17 10:11:59;;;;;;;10.93;5.80;;;;;;;;;;5045590;28;20095;-83
2023/02/17 10:14:32;;;;;;;11.40;4.97;;;;;;;;;;5039880;28;20033;-78
2023/02/17 10:17:27;;;;;;;10.07;5.68;;;;;;;;;;5061326;28;20029;-79
2023/02/17 10:20:03;;;;;;;12.25;5.70;;;;;;;;;;5028922;28;20258;-79
2023/02/17 10:22:30;;;;;;;10.95;5.22;;;;;;;;;;5058343;28;20033;-77
2023/02/17 10:24:56;;;;;;;10.23;5.15;;;;;;;;;;5046030;28;20020;-79
2023/02/17 10:27:31;;;;;;;12.65;5.45;;;;;;;;;;5043402;28;20507;-79
2023/02/17 10:30:03;;;;;;;12.98;4.70;;;;;;;;;;5046478;28;20083;-78
2023/02/17 10:32:33;;;;;;;11.80;6.00;;;;;;;;;;5046918;28;20029;-78
2023/02/17 10:35:13;;;;;;;12.23;5.05;;;;;;;;;;5063479;28;20042;-78
2023/02/17 10:38:22;;;;;;;12.40;5.10;;;;;;;;;;5043165;28;20878;-79
2023/02/17 10:40:50;;;;;;;7.78;4.80;;;;;;;;;;4996556;28;20034;-78
2023/02/17 10:43:23;;;;;;;11.35;4.65;;;;;;;;;;5032772;28;20086;-79
2023/02/17 10:45:50;;;;;;;10.73;4.82;;;;;;;;;;5041270;28;20052;-80
2023/02/17 10:48:27;;;;;;;7.55;4.45;;;;;;;;;;5048247;28;20027;-79
2023/02/17 10:50:55;;;;;;;7.85;4.50;;;;;;;;;;5045700;28;20021;-80
2023/02/17 10:53:30;;;;;;;8.55;4.30;;;;;;;;;;5048323;28;20037;-76
2023/02/17 10:56:22;;;;;;;6.93;3.75;;;;;;;;;;5038719;28;20029;-80
2023/02/17 10:58:53;;;;;;;10.35;3.75;;;;;;;;;;5020427;28;20043;-79
2023/02/17 11:01:22;;;;;;;7.07;4.38;;;;;;;;;;5050631;28;20025;-79
2023/02/17 11:04:06;;;;;;;7.30;3.90;;;;;;;;;;5040126;28;20021;-79
2023/02/17 11:06:43;;;;;;;12.77;3.97;;;;;;;;;;5040904;28;20090;-80
2023/02/17 11:09:33;;;;;;;6.85;3.53;;;;;;;;;;5048347;28;20021;-82
2023/02/17 11:12:02;;;;;;;5.90;3.17;;;;;;;;;;5045417;28;20448;-83
2023/02/17 11:14:31;;;;;;;9.02;3.67;;;;;;;;;;5053512;28;20104;-84
2023/02/17 11:17:00;;;;;;;4.70;3.40;;;;;;;;;;5026743;28;20025;-81
2023/02/17 11:19:32;;;;;;;4.88;3.58;;;;;;;;;;5054545;28;20471;-81
2023/02/17 11:21:59;;;;;;;7.35;3.60;;;;;;;;;;5068977;28;20675;-82
2023/02/17 11:24:26;;;;;;;8.35;3.20;;;;;;;;;;5032706;28;20033;-82
2023/02/17 11:26:58;;;;;;;11.60;4.25;;;;;;;;;;5048009;28;20112;-82
2023/02/17 11:29:23;;;;;;;;;;;;;;;;;;5051230;28;20024;-81
2023/02/17 11:32:07;;;;;;;21.42;7.93;;;;;;;;;;5051734;28;19978;-81
2023/02/17 11:34:40;;;;;;;6.20;3.88;;;;;;;;;;5045592;28;20044;-81
2023/02/17 11:37:08;;;;;;;5.55;2.83;;;;;;;;;;5045637;28;20013;-82
2023/02/17 11:39:40;;;;;;;8.23;3.40;;;;;;;;;;5046465;28;20409;-82
2023/02/17 11:42:22;;;;;;;4.55;3.20;;;;;;;;;;5052248;28;20024;-80
2023/02/17 11:44:49;;;;;;;5.70;3.50;;;;;;;;;;5044858;28;20436;-80
2023/02/17 11:47:39;;;;;;;4.18;2.97;;;;;;;;;;5068948;28;20051;-81
2023/02/17 11:50:39;;;;;;;6.25;3.72;;;;;;;;;;5053134;28;20066;-80
2023/02/17 11:53:45;;;;;;;10.02;3.08;;;;;;;;;;5033170;28;20033;-83
2023/02/17 11:56:17;;;;;;;4.07;2.97;;;;;;;;;;5044522;28;20038;-83
2023/02/17 11:58:51;;;;;;;;;;;;;;;;;;5044801;28;20052;-83
2023/02/17 12:01:17;;;;;;;5.03;2.88;;;;;;;;;;5044513;28;19958;-83
2023/02/17 12:04:17;;;;;;;3.25;2.47;;;;;;;;;;5058041;28;20037;-81
2023/02/17 12:07:24;;;;;;;6.57;4.18;;;;;;;;;;5048602;28;20031;-81
2023/02/17 12:09:50;;;;;;;5.30;3.33;;;;;;;;;;5064857;28;20565;-84
2023/02/17 12:12:19;;;;;;;4.72;3.20;;;;;;;;;;5044645;28;20082;-82
2023/02/17 12:15:18;;;;;;;6.78;3.35;;;;;;;;;;5046358;28;20029;-82
2023/02/17 12:18:02;;;;;;;5.55;3.13;;;;;;;;;;5048320;28;20040;-82
2023/02/17 12:20:51;;;;;;;7.07;4.03;;;;;;;;;;5044212;28;20488;-84
2023/02/17 12:24:00;;;;;;;6.78;3.70;;;;;;;;;;5047205;28;20033;-83
2023/02/17 12:26:44;;;;;;;8.45;3.00;;;;;;;;;;5019306;28;20151;-81
2023/02/17 12:29:40;;;;;;;5.07;3.08;;;;;;;;;;5046901;28;20838;-80
2023/02/17 12:32:33;;;;;;;14.18;3.40;;;;;;;;;;5045973;28;20024;-81
2023/02/17 12:35:13;;;;;;;5.72;3.33;;;;;;;;;;5049602;28;20581;-82
2023/02/17 12:37:50;;;;;;;4.85;2.33;;;;;;;;;;5052344;28;20059;-83
2023/02/17 12:40:19;;;;;;;7.50;2.78;;;;;;;;;;5057412;28;20362;-84
2023/02/17 12:42:54;;;;;;;7.47;2.88;;;;;;;;;;5046021;28;20029;-83
2023/02/17 12:45:29;;;;;;;6.20;3.53;;;;;;;;;;5047130;28;20032;-82
2023/02/17 12:48:18;;;;;;;3.33;2.83;;;;;;;;;;5046244;28;20069;-86
2023/02/17 12:50:55;;;;;;;9.35;3.20;;;;;;;;;;5044497;28;20362;-84
2023/02/17 12:53:40;;;;;;;4.55;2.92;;;;;;;;;;5042092;28;20028;-85
2023/02/17 12:56:27;;;;;;;5.88;3.10;;;;;;;;;;5051046;28;20033;-85
2023/02/17 12:58:55;;;;;;;6.72;3.20;;;;;;;;;;5048771;28;20048;-82
2023/02/17 13:01:28;;;;;;;5.82;2.85;;;;;;;;;;5050924;28;20077;-82
2023/02/17 13:03:54;;;;;;;4.55;2.53;;;;;;;;;;5046254;28;20047;-84
2023/02/17 13:06:33;;;;;;;5.75;3.00;;;;;;;;;;5051469;28;20063;-84
2023/02/17 13:09:38;;;;;;;4.63;3.05;;;;;;;;;;5053022;28;20079;-80
2023/02/17 13:12:15;;;;;;;9.00;3.03;;;;;;;;;;5048808;28;20033;-81
2023/02/17 13:14:43;;;;;;;4.63;2.85;;;;;;;;;;5040223;28;20018;-81
2023/02/17 13:17:25;;;;;;;6.05;3.40;;;;;;;;;;5044495;28;20037;-81
2023/02/17 13:20:05;;;;;;;4.97;2.45;;;;;;;;;;5055240;28;20025;-80
2023/02/17 13:22:31;;;;;;;6.95;3.30;;;;;;;;;;5050609;28;20028;-82
2023/02/17 13:24:56;;;;;;;3.80;3.00;;;;;;;;;;5049901;28;20961;-80
2023/02/17 13:27:31;;;;;;;4.65;2.70;;;;;;;;;;5043508;28;20048;-79
2023/02/17 13:30:05;;;;;;;13.88;6.00;;;;;;;;;;5046545;28;20033;-82
2023/02/17 13:32:34;;;;;;;5.25;3.28;;;;;;;;;;5054733;28;20097;-82
2023/02/17 13:35:23;;;;;;;4.65;2.58;;;;;;;;;;5047489;28;20082;-81
2023/02/17 13:37:49;;;;;;;4.28;2.92;;;;;;;;;;5051452;28;20362;-82
2023/02/17 13:40:17;;;;;;;4.07;2.97;;;;;;;;;;5045971;28;20084;-81
2023/02/17 13:42:53;;;;;;;4.80;2.67;;;;;;;;;;5044645;28;20033;-81
2023/02/17 13:45:22;;;;;;;13.77;7.07;;;;;;;;;;5039298;28;20049;-79
2023/02/17 13:47:50;;;;;;;5.30;3.05;;;;;;;;;;5041940;28;20465;-82
2023/02/17 13:50:35;;;;;;;11.38;5.72;;;;;;;;;;5046565;28;20046;-79
2023/02/17 13:53:05;;;;;;;4.60;2.90;;;;;;;;;;5049214;28;20037;-78
2023/02/17 13:55:30;;;;;;;3.85;2.60;;;;;;;;;;5040094;28;20139;-80
2023/02/17 13:57:58;;;;;;;3.33;2.35;;;;;;;;;;5048744;28;20033;-79
2023/02/17 14:00:30;;;;;;;3.10;2.58;;;;;;;;;;5038048;28;20060;-77
2023/02/17 14:03:10;;;;;;;2.22;1.88;;;;;;;;;;5045895;28;20029;-81
2023/02/17 14:05:42;;;;;;;4.40;2.80;;;;;;;;;;5050585;28;20029;-81
2023/02/17 14:08:17;;;;;;;4.43;2.80;;;;;;;;;;5044248;28;20112;-82
2023/02/17 14:10:43;;;;;;;3.40;2.47;;;;;;;;;;5043069;28;20037;-81
2023/02/17 14:13:11;;;;;;;4.10;2.50;;;;;;;;;;5051619;28;20046;-80
2023/02/17 14:15:37;;;;;;;9.38;2.50;;;;;;;;;;5047421;28;20037;-80
2023/02/17 14:18:15;;;;;;;4.20;2.58;;;;;;;;;;5050555;28;20028;-80
2023/02/17 14:20:41;;;;;;;5.60;2.65;;;;;;;;;;5030375;28;20022;-77
2023/02/17 14:23:12;;;;;;;4.43;2.97;;;;;;;;;;5035464;28;20377;-79
2023/02/17 14:25:45;;;;;;;3.45;2.22;;;;;;;;;;5041031;28;20044;-79
2023/02/17 14:28:20;;;;;;;4.38;2.78;;;;;;;;;;5046660;28;20039;-78
2023/02/17 14:30:46;;;;;;;3.13;2.53;;;;;;;;;;5043408;28;20033;-78
2023/02/17 14:33:15;;;;;;;3.22;2.28;;;;;;;;;;5048246;28;20161;-79
2023/02/17 14:35:54;;;;;;;3.75;2.47;;;;;;;;;;5049199;28;20489;-77
2023/02/17 14:38:21;;;;;;;6.10;3.17;;;;;;;;;;5044763;28;20021;-79
2023/02/17 14:40:49;;;;;;;2.92;2.28;;;;;;;;;;5049068;28;20348;-81
2023/02/17 14:43:15;;;;;;;2.25;2.00;;;;;;;;;;5037209;28;20372;-79
2023/02/17 14:45:40;;;;;;;3.60;2.35;;;;;;;;;;5046219;28;20040;-79
2023/02/17 14:48:06;;;;;;;3.80;1.90;;;;;;;;;;5059949;28;20040;-82
2023/02/17 14:50:33;;;;;;;3.58;2.08;;;;;;;;;;5044959;28;20048;-79
2023/02/17 14:52:59;;;;;;;5.05;2.10;;;;;;;;;;5043923;28;20028;-80
2023/02/17 14:55:35;;;;;;;3.13;2.00;;;;;;;;;;5063644;28;20036;-79